sensor_id;sensor_type;location;lat;lon;timestamp;P1;durP1;ratioP1;P2;durP2;ratioP2
13660;SDS011;6903;49.480;11.102;2023-02-01T00:01:34;6.33;;;5.43;;
13660;SDS011;6903;49.480;11.102;2023-02-01T00:03:59;7.13;;;5.40;;
13660;SDS011;6903;49.480;11.102;2023-02-01T00:06:25;8.00;;;5.57;;
13660;SDS011;6903;49.480;11.102;2023-02-01T00:08:53;6.40;;;5.53;;
13660;SDS011;6903;49.480;11.102;2023-02-01T00:11:19;7.13;;;5.90;;
13660;SDS011;6903;49.480;11.102;2023-02-01T00:13:45;7.93;;;6.80;;
13660;SDS011;6903;49.480;11.102;2023-02-01T00:16:12;8.60;;;6.73;;
13660;SDS011;6903;49.480;11.102;2023-02-01T00:18:43;9.50;;;6.17;;
13660;SDS011;6903;49.480;11.102;2023-02-01T00:21:13;7.53;;;6.10;;
13660;SDS011;6903;49.480;11.102;2023-02-01T00:23:39;8.80;;;6.53;;
13660;SDS011;6903;49.480;11.102;2023-02-01T00:26:06;8.80;;;6.77;;
13660;SDS011;6903;49.480;11.102;2023-02-01T00:28:36;8.20;;;6.10;;
13660;SDS011;6903;49.480;11.102;2023-02-01T00:31:02;9.00;;;6.30;;
13660;SDS011;6903;49.480;11.102;2023-02-01T00:33:29;10.10;;;6.93;;
13660;SDS011;6903;49.480;11.102;2023-02-01T00:35:59;10.23;;;7.53;;
13660;SDS011;6903;49.480;11.102;2023-02-01T00:38:27;7.67;;;6.63;;
13660;SDS011;6903;49.480;11.102;2023-02-01T00:40:52;7.10;;;6.37;;
13660;SDS011;6903;49.480;11.102;2023-02-01T00:43:18;8.17;;;6.50;;
13660;SDS011;6903;49.480;11.102;2023-02-01T00:45:45;7.93;;;6.17;;
13660;SDS011;6903;49.480;11.102;2023-02-01T00:48:10;9.30;;;6.63;;
13660;SDS011;6903;49.480;11.102;2023-02-01T00:50:36;7.40;;;6.57;;
13660;SDS011;6903;49.480;11.102;2023-02-01T00:53:06;7.23;;;6.17;;
13660;SDS011;6903;49.480;11.102;2023-02-01T00:55:31;7.27;;;6.30;;
13660;SDS011;6903;49.480;11.102;2023-02-01T00:57:57;6.80;;;6.10;;
13660;SDS011;6903;49.480;11.102;2023-02-01T01:00:22;7.47;;;5.87;;
13660;SDS011;6903;49.480;11.102;2023-02-01T01:02:47;7.33;;;6.27;;
13660;SDS011;6903;49.480;11.102;2023-02-01T01:05:12;7.83;;;6.07;;
13660;SDS011;6903;49.480;11.102;2023-02-01T01:07:38;7.93;;;6.70;;
13660;SDS011;6903;49.480;11.102;2023-02-01T01:10:03;8.33;;;6.30;;
13660;SDS011;6903;49.480;11.102;2023-02-01T01:12:29;7.93;;;6.40;;
13660;SDS011;6903;49.480;11.102;2023-02-01T01:14:55;7.10;;;6.20;;
13660;SDS011;6903;49.480;11.102;2023-02-01T01:17:20;7.47;;;6.57;;
13660;SDS011;6903;49.480;11.102;2023-02-01T01:19:45;9.40;;;6.47;;
13660;SDS011;6903;49.480;11.102;2023-02-01T01:22:10;7.73;;;6.13;;
13660;SDS011;6903;49.480;11.102;2023-02-01T01:24:36;9.10;;;6.63;;
13660;SDS011;6903;49.480;11.102;2023-02-01T01:27:01;7.90;;;6.33;;
13660;SDS011;6903;49.480;11.102;2023-02-01T01:29:26;7.47;;;6.07;;
13660;SDS011;6903;49.480;11.102;2023-02-01T01:31:52;7.53;;;6.23;;
13660;SDS011;6903;49.480;11.102;2023-02-01T01:34:17;7.87;;;6.87;;
13660;SDS011;6903;49.480;11.102;2023-02-01T01:36:42;9.87;;;7.13;;
13660;SDS011;6903;49.480;11.102;2023-02-01T01:39:08;8.13;;;6.57;;
13660;SDS011;6903;49.480;11.102;2023-02-01T01:41:33;9.13;;;7.13;;
13660;SDS011;6903;49.480;11.102;2023-02-01T01:43:59;8.03;;;7.23;;
13660;SDS011;6903;49.480;11.102;2023-02-01T01:46:31;8.70;;;7.47;;
13660;SDS011;6903;49.480;11.102;2023-02-01T01:49:16;7.30;;;6.53;;
13660;SDS011;6903;49.480;11.102;2023-02-01T01:51:55;8.63;;;6.53;;
13660;SDS011;6903;49.480;11.102;2023-02-01T01:56:53;8.23;;;7.33;;
13660;SDS011;6903;49.480;11.102;2023-02-01T01:59:22;8.77;;;7.20;;
13660;SDS011;6903;49.480;11.102;2023-02-01T02:01:49;9.57;;;6.90;;
13660;SDS011;6903;49.480;11.102;2023-02-01T02:04:14;7.63;;;6.33;;
13660;SDS011;6903;49.480;11.102;2023-02-01T02:06:51;10.50;;;7.07;;
13660;SDS011;6903;49.480;11.102;2023-02-01T02:09:20;8.13;;;6.27;;
13660;SDS011;6903;49.480;11.102;2023-02-01T02:11:45;7.80;;;6.57;;
13660;SDS011;6903;49.480;11.102;2023-02-01T02:14:11;7.53;;;6.57;;
13660;SDS011;6903;49.480;11.102;2023-02-01T02:16:46;6.43;;;5.67;;
13660;SDS011;6903;49.480;11.102;2023-02-01T02:30:53;7.77;;;6.03;;
13660;SDS011;6903;49.480;11.102;2023-02-01T02:38:58;7.43;;;5.70;;
13660;SDS011;6903;49.480;11.102;2023-02-01T02:41:32;7.20;;;5.53;;
13660;SDS011;6903;49.480;11.102;2023-02-01T02:44:45;7.40;;;5.30;;
13660;SDS011;6903;49.480;11.102;2023-02-01T02:47:36;8.23;;;6.00;;
13660;SDS011;6903;49.480;11.102;2023-02-01T02:50:32;7.77;;;5.53;;
13660;SDS011;6903;49.480;11.102;2023-02-01T02:53:48;7.83;;;5.93;;
13660;SDS011;6903;49.480;11.102;2023-02-01T02:56:40;7.60;;;5.77;;
13660;SDS011;6903;49.480;11.102;2023-02-01T02:59:25;9.37;;;6.87;;
13660;SDS011;6903;49.480;11.102;2023-02-01T03:02:11;8.27;;;7.00;;
13660;SDS011;6903;49.480;11.102;2023-02-01T03:04:57;9.67;;;7.23;;
13660;SDS011;6903;49.480;11.102;2023-02-01T03:10:10;9.87;;;6.63;;
13660;SDS011;6903;49.480;11.102;2023-02-01T03:12:42;9.03;;;7.27;;
13660;SDS011;6903;49.480;11.102;2023-02-01T03:15:21;11.20;;;7.80;;
13660;SDS011;6903;49.480;11.102;2023-02-01T03:17:51;9.57;;;7.67;;
13660;SDS011;6903;49.480;11.102;2023-02-01T03:20:20;11.10;;;7.97;;
13660;SDS011;6903;49.480;11.102;2023-02-01T03:22:48;9.07;;;7.73;;
13660;SDS011;6903;49.480;11.102;2023-02-01T03:25:18;11.80;;;8.03;;
13660;SDS011;6903;49.480;11.102;2023-02-01T03:27:48;10.90;;;7.83;;
13660;SDS011;6903;49.480;11.102;2023-02-01T03:30:22;9.90;;;7.67;;
13660;SDS011;6903;49.480;11.102;2023-02-01T03:32:51;10.40;;;8.07;;
13660;SDS011;6903;49.480;11.102;2023-02-01T03:35:27;11.93;;;9.00;;
13660;SDS011;6903;49.480;11.102;2023-02-01T03:40:45;11.00;;;8.43;;
13660;SDS011;6903;49.480;11.102;2023-02-01T03:43:16;12.97;;;8.90;;
13660;SDS011;6903;49.480;11.102;2023-02-01T03:45:44;13.10;;;9.10;;
13660;SDS011;6903;49.480;11.102;2023-02-01T03:48:15;12.73;;;9.33;;
13660;SDS011;6903;49.480;11.102;2023-02-01T03:50:44;13.27;;;9.43;;
13660;SDS011;6903;49.480;11.102;2023-02-01T03:53:15;10.87;;;9.03;;
13660;SDS011;6903;49.480;11.102;2023-02-01T03:55:44;12.80;;;9.60;;
13660;SDS011;6903;49.480;11.102;2023-02-01T03:58:14;12.13;;;9.67;;
13660;SDS011;6903;49.480;11.102;2023-02-01T04:00:53;13.17;;;9.60;;
13660;SDS011;6903;49.480;11.102;2023-02-01T04:03:23;10.60;;;9.07;;
13660;SDS011;6903;49.480;11.102;2023-02-01T04:05:50;12.87;;;10.03;;
13660;SDS011;6903;49.480;11.102;2023-02-01T04:08:16;13.63;;;10.30;;
13660;SDS011;6903;49.480;11.102;2023-02-01T04:10:42;13.30;;;10.23;;
13660;SDS011;6903;49.480;11.102;2023-02-01T04:13:08;13.00;;;10.23;;
13660;SDS011;6903;49.480;11.102;2023-02-01T04:15:33;15.47;;;10.37;;
13660;SDS011;6903;49.480;11.102;2023-02-01T04:17:59;12.53;;;10.00;;
13660;SDS011;6903;49.480;11.102;2023-02-01T04:20:25;11.97;;;9.70;;
13660;SDS011;6903;49.480;11.102;2023-02-01T04:22:50;12.37;;;9.80;;
13660;SDS011;6903;49.480;11.102;2023-02-01T04:25:16;12.57;;;10.30;;
13660;SDS011;6903;49.480;11.102;2023-02-01T04:27:42;12.73;;;9.30;;
13660;SDS011;6903;49.480;11.102;2023-02-01T04:30:08;10.97;;;9.37;;
13660;SDS011;6903;49.480;11.102;2023-02-01T04:32:34;12.63;;;9.23;;
13660;SDS011;6903;49.480;11.102;2023-02-01T04:35:00;11.27;;;9.30;;
13660;SDS011;6903;49.480;11.102;2023-02-01T04:37:26;11.00;;;9.43;;
13660;SDS011;6903;49.480;11.102;2023-02-01T04:39:51;11.70;;;9.10;;
13660;SDS011;6903;49.480;11.102;2023-02-01T04:42:16;13.40;;;10.00;;
13660;SDS011;6903;49.480;11.102;2023-02-01T04:44:42;11.90;;;9.70;;
13660;SDS011;6903;49.480;11.102;2023-02-01T04:47:07;11.63;;;9.07;;
13660;SDS011;6903;49.480;11.102;2023-02-01T04:49:34;13.63;;;9.30;;
13660;SDS011;6903;49.480;11.102;2023-02-01T04:51:59;12.20;;;8.80;;
13660;SDS011;6903;49.480;11.102;2023-02-01T04:54:24;11.57;;;9.50;;
13660;SDS011;6903;49.480;11.102;2023-02-01T04:56:50;11.83;;;9.63;;
13660;SDS011;6903;49.480;11.102;2023-02-01T04:59:15;11.20;;;9.97;;
13660;SDS011;6903;49.480;11.102;2023-02-01T05:01:41;12.10;;;9.50;;
13660;SDS011;6903;49.480;11.102;2023-02-01T05:04:06;12.60;;;9.77;;
13660;SDS011;6903;49.480;11.102;2023-02-01T05:06:31;12.00;;;9.37;;
13660;SDS011;6903;49.480;11.102;2023-02-01T05:08:57;13.23;;;10.00;;
13660;SDS011;6903;49.480;11.102;2023-02-01T05:11:22;12.77;;;9.47;;
13660;SDS011;6903;49.480;11.102;2023-02-01T05:14:05;11.53;;;8.93;;
13660;SDS011;6903;49.480;11.102;2023-02-01T05:16:31;11.90;;;9.50;;
13660;SDS011;6903;49.480;11.102;2023-02-01T05:18:56;11.57;;;9.73;;
13660;SDS011;6903;49.480;11.102;2023-02-01T05:21:21;14.13;;;9.43;;
13660;SDS011;6903;49.480;11.102;2023-02-01T05:23:47;12.33;;;9.33;;
13660;SDS011;6903;49.480;11.102;2023-02-01T05:26:31;12.37;;;9.40;;
13660;SDS011;6903;49.480;11.102;2023-02-01T05:28:56;9.73;;;7.27;;
13660;SDS011;6903;49.480;11.102;2023-02-01T05:31:22;9.17;;;7.43;;
13660;SDS011;6903;49.480;11.102;2023-02-01T05:33:48;10.37;;;7.40;;
13660;SDS011;6903;49.480;11.102;2023-02-01T05:36:13;8.03;;;6.37;;
13660;SDS011;6903;49.480;11.102;2023-02-01T05:38:38;8.27;;;6.50;;
13660;SDS011;6903;49.480;11.102;2023-02-01T05:41:04;8.90;;;7.53;;
13660;SDS011;6903;49.480;11.102;2023-02-01T05:43:29;12.03;;;8.53;;
13660;SDS011;6903;49.480;11.102;2023-02-01T05:45:54;9.97;;;8.37;;
13660;SDS011;6903;49.480;11.102;2023-02-01T05:48:20;11.83;;;10.03;;
13660;SDS011;6903;49.480;11.102;2023-02-01T05:50:45;11.10;;;8.80;;
13660;SDS011;6903;49.480;11.102;2023-02-01T05:53:10;11.47;;;9.10;;
13660;SDS011;6903;49.480;11.102;2023-02-01T05:55:36;12.80;;;8.50;;
13660;SDS011;6903;49.480;11.102;2023-02-01T05:58:02;9.60;;;7.47;;
13660;SDS011;6903;49.480;11.102;2023-02-01T06:00:28;10.60;;;7.37;;
13660;SDS011;6903;49.480;11.102;2023-02-01T06:02:53;10.43;;;6.30;;
13660;SDS011;6903;49.480;11.102;2023-02-01T06:05:18;8.43;;;6.00;;
13660;SDS011;6903;49.480;11.102;2023-02-01T06:07:44;6.87;;;5.57;;
13660;SDS011;6903;49.480;11.102;2023-02-01T06:10:09;6.07;;;5.20;;
13660;SDS011;6903;49.480;11.102;2023-02-01T06:12:35;6.87;;;4.93;;
13660;SDS011;6903;49.480;11.102;2023-02-01T06:15:00;5.80;;;4.20;;
13660;SDS011;6903;49.480;11.102;2023-02-01T06:17:25;4.57;;;3.43;;
13660;SDS011;6903;49.480;11.102;2023-02-01T06:19:51;3.80;;;2.70;;
13660;SDS011;6903;49.480;11.102;2023-02-01T06:22:16;4.40;;;3.00;;
13660;SDS011;6903;49.480;11.102;2023-02-01T06:24:41;4.30;;;3.43;;
13660;SDS011;6903;49.480;11.102;2023-02-01T06:27:07;4.03;;;3.47;;
13660;SDS011;6903;49.480;11.102;2023-02-01T06:29:34;5.50;;;3.50;;
13660;SDS011;6903;49.480;11.102;2023-02-01T06:31:59;5.60;;;3.83;;
13660;SDS011;6903;49.480;11.102;2023-02-01T06:34:25;4.03;;;3.60;;
13660;SDS011;6903;49.480;11.102;2023-02-01T06:36:50;6.33;;;4.33;;
13660;SDS011;6903;49.480;11.102;2023-02-01T06:39:15;5.47;;;4.63;;
13660;SDS011;6903;49.480;11.102;2023-02-01T06:41:42;5.67;;;4.97;;
13660;SDS011;6903;49.480;11.102;2023-02-01T06:44:16;5.43;;;4.50;;
13660;SDS011;6903;49.480;11.102;2023-02-01T06:46:41;6.50;;;4.90;;
13660;SDS011;6903;49.480;11.102;2023-02-01T06:49:07;5.83;;;5.17;;
13660;SDS011;6903;49.480;11.102;2023-02-01T06:51:33;5.60;;;4.80;;
13660;SDS011;6903;49.480;11.102;2023-02-01T06:53:58;6.37;;;4.97;;
13660;SDS011;6903;49.480;11.102;2023-02-01T06:56:24;5.30;;;4.67;;
13660;SDS011;6903;49.480;11.102;2023-02-01T06:58:50;6.27;;;4.50;;
13660;SDS011;6903;49.480;11.102;2023-02-01T07:01:15;4.73;;;4.23;;
13660;SDS011;6903;49.480;11.102;2023-02-01T07:03:41;4.93;;;3.83;;
13660;SDS011;6903;49.480;11.102;2023-02-01T07:06:07;5.63;;;4.20;;
13660;SDS011;6903;49.480;11.102;2023-02-01T07:08:35;4.83;;;3.63;;
13660;SDS011;6903;49.480;11.102;2023-02-01T07:11:05;5.37;;;4.50;;
13660;SDS011;6903;49.480;11.102;2023-02-01T07:13:32;4.43;;;4.03;;
13660;SDS011;6903;49.480;11.102;2023-02-01T07:15:58;4.90;;;4.10;;
13660;SDS011;6903;49.480;11.102;2023-02-01T07:18:26;5.23;;;4.00;;
13660;SDS011;6903;49.480;11.102;2023-02-01T07:20:52;5.23;;;4.17;;
13660;SDS011;6903;49.480;11.102;2023-02-01T07:23:18;5.37;;;4.87;;
13660;SDS011;6903;49.480;11.102;2023-02-01T07:25:44;5.30;;;4.23;;
13660;SDS011;6903;49.480;11.102;2023-02-01T07:28:09;4.70;;;4.20;;
13660;SDS011;6903;49.480;11.102;2023-02-01T07:30:34;5.83;;;4.80;;
13660;SDS011;6903;49.480;11.102;2023-02-01T07:32:59;5.63;;;4.70;;
13660;SDS011;6903;49.480;11.102;2023-02-01T07:35:26;5.77;;;4.37;;
13660;SDS011;6903;49.480;11.102;2023-02-01T07:37:52;5.93;;;4.97;;
13660;SDS011;6903;49.480;11.102;2023-02-01T07:40:17;5.73;;;4.77;;
13660;SDS011;6903;49.480;11.102;2023-02-01T07:42:43;4.67;;;4.17;;
13660;SDS011;6903;49.480;11.102;2023-02-01T07:45:08;5.33;;;4.30;;
13660;SDS011;6903;49.480;11.102;2023-02-01T07:47:34;5.50;;;4.27;;
13660;SDS011;6903;49.480;11.102;2023-02-01T07:49:59;6.27;;;4.83;;
13660;SDS011;6903;49.480;11.102;2023-02-01T07:52:27;7.73;;;5.50;;
13660;SDS011;6903;49.480;11.102;2023-02-01T07:54:53;7.83;;;5.23;;
13660;SDS011;6903;49.480;11.102;2023-02-01T07:57:18;7.53;;;5.00;;
13660;SDS011;6903;49.480;11.102;2023-02-01T07:59:44;5.73;;;4.97;;
13660;SDS011;6903;49.480;11.102;2023-02-01T08:02:48;7.53;;;5.10;;
13660;SDS011;6903;49.480;11.102;2023-02-01T08:05:13;7.00;;;4.63;;
13660;SDS011;6903;49.480;11.102;2023-02-01T08:07:38;4.77;;;4.10;;
13660;SDS011;6903;49.480;11.102;2023-02-01T08:10:04;8.03;;;4.50;;
13660;SDS011;6903;49.480;11.102;2023-02-01T08:12:35;7.03;;;4.17;;
13660;SDS011;6903;49.480;11.102;2023-02-01T08:15:01;6.57;;;4.00;;
13660;SDS011;6903;49.480;11.102;2023-02-01T08:17:26;7.00;;;3.93;;
13660;SDS011;6903;49.480;11.102;2023-02-01T08:19:53;8.57;;;4.90;;
13660;SDS011;6903;49.480;11.102;2023-02-01T08:22:18;8.40;;;4.40;;
13660;SDS011;6903;49.480;11.102;2023-02-01T08:24:43;7.23;;;3.73;;
13660;SDS011;6903;49.480;11.102;2023-02-01T08:27:09;4.53;;;3.40;;
13660;SDS011;6903;49.480;11.102;2023-02-01T08:29:34;5.43;;;3.30;;
13660;SDS011;6903;49.480;11.102;2023-02-01T08:31:59;4.37;;;3.23;;
13660;SDS011;6903;49.480;11.102;2023-02-01T08:34:25;5.10;;;3.20;;
13660;SDS011;6903;49.480;11.102;2023-02-01T08:36:51;7.50;;;3.00;;
13660;SDS011;6903;49.480;11.102;2023-02-01T08:39:22;3.40;;;2.80;;
13660;SDS011;6903;49.480;11.102;2023-02-01T08:41:47;3.77;;;2.53;;
13660;SDS011;6903;49.480;11.102;2023-02-01T08:44:32;3.70;;;3.03;;
13660;SDS011;6903;49.480;11.102;2023-02-01T08:46:58;5.10;;;2.50;;
13660;SDS011;6903;49.480;11.102;2023-02-01T08:49:23;5.27;;;3.23;;
13660;SDS011;6903;49.480;11.102;2023-02-01T08:51:48;6.37;;;3.00;;
13660;SDS011;6903;49.480;11.102;2023-02-01T08:54:14;4.20;;;2.60;;
13660;SDS011;6903;49.480;11.102;2023-02-01T08:56:39;6.80;;;2.83;;
13660;SDS011;6903;49.480;11.102;2023-02-01T08:59:04;6.87;;;2.70;;
13660;SDS011;6903;49.480;11.102;2023-02-01T09:01:29;6.97;;;2.97;;
13660;SDS011;6903;49.480;11.102;2023-02-01T09:03:55;6.27;;;3.43;;
13660;SDS011;6903;49.480;11.102;2023-02-01T09:06:20;5.17;;;2.77;;
13660;SDS011;6903;49.480;11.102;2023-02-01T09:08:45;3.87;;;2.80;;
13660;SDS011;6903;49.480;11.102;2023-02-01T09:11:12;6.17;;;3.47;;
13660;SDS011;6903;49.480;11.102;2023-02-01T09:13:41;9.20;;;3.40;;
13660;SDS011;6903;49.480;11.102;2023-02-01T09:16:07;4.77;;;3.30;;
13660;SDS011;6903;49.480;11.102;2023-02-01T09:18:33;5.97;;;3.50;;
13660;SDS011;6903;49.480;11.102;2023-02-01T09:20:58;5.20;;;3.87;;
13660;SDS011;6903;49.480;11.102;2023-02-01T09:23:24;7.07;;;3.93;;
13660;SDS011;6903;49.480;11.102;2023-02-01T09:25:49;6.77;;;3.40;;
13660;SDS011;6903;49.480;11.102;2023-02-01T09:28:18;5.80;;;3.77;;
13660;SDS011;6903;49.480;11.102;2023-02-01T09:30:44;5.43;;;3.63;;
13660;SDS011;6903;49.480;11.102;2023-02-01T09:33:09;6.03;;;3.00;;
13660;SDS011;6903;49.480;11.102;2023-02-01T09:35:34;5.93;;;2.87;;
13660;SDS011;6903;49.480;11.102;2023-02-01T09:37:59;4.33;;;2.17;;
13660;SDS011;6903;49.480;11.102;2023-02-01T09:40:25;8.70;;;2.57;;
13660;SDS011;6903;49.480;11.102;2023-02-01T09:48:04;5.33;;;2.00;;
13660;SDS011;6903;49.480;11.102;2023-02-01T09:50:37;7.10;;;2.33;;
13660;SDS011;6903;49.480;11.102;2023-02-01T09:53:15;5.93;;;2.07;;
13660;SDS011;6903;49.480;11.102;2023-02-01T09:55:49;4.70;;;1.60;;
13660;SDS011;6903;49.480;11.102;2023-02-01T09:58:17;6.17;;;1.70;;
13660;SDS011;6903;49.480;11.102;2023-02-01T10:00:52;7.57;;;2.10;;
13660;SDS011;6903;49.480;11.102;2023-02-01T10:03:20;6.60;;;1.87;;
13660;SDS011;6903;49.480;11.102;2023-02-01T10:05:53;4.70;;;2.20;;
13660;SDS011;6903;49.480;11.102;2023-02-01T10:19:47;4.50;;;2.10;;
13660;SDS011;6903;49.480;11.102;2023-02-01T10:27:39;6.87;;;3.10;;
13660;SDS011;6903;49.480;11.102;2023-02-01T10:30:28;8.43;;;3.10;;
13660;SDS011;6903;49.480;11.102;2023-02-01T10:33:07;6.83;;;3.00;;
13660;SDS011;6903;49.480;11.102;2023-02-01T10:35:41;8.33;;;3.63;;
13660;SDS011;6903;49.480;11.102;2023-02-01T10:38:12;6.37;;;3.53;;
13660;SDS011;6903;49.480;11.102;2023-02-01T10:40:49;6.07;;;3.20;;
13660;SDS011;6903;49.480;11.102;2023-02-01T10:43:16;9.17;;;3.73;;
13660;SDS011;6903;49.480;11.102;2023-02-01T10:45:42;9.77;;;4.07;;
13660;SDS011;6903;49.480;11.102;2023-02-01T10:48:08;6.80;;;3.43;;
13660;SDS011;6903;49.480;11.102;2023-02-01T10:53:50;6.80;;;3.70;;
13660;SDS011;6903;49.480;11.102;2023-02-01T10:56:24;7.93;;;3.90;;
13660;SDS011;6903;49.480;11.102;2023-02-01T10:58:59;7.43;;;3.87;;
13660;SDS011;6903;49.480;11.102;2023-02-01T11:01:28;8.43;;;3.47;;
13660;SDS011;6903;49.480;11.102;2023-02-01T11:03:59;8.60;;;3.90;;
13660;SDS011;6903;49.480;11.102;2023-02-01T11:06:29;7.33;;;3.57;;
13660;SDS011;6903;49.480;11.102;2023-02-01T11:08:59;9.03;;;3.93;;
13660;SDS011;6903;49.480;11.102;2023-02-01T11:14:19;8.07;;;3.83;;
13660;SDS011;6903;49.480;11.102;2023-02-01T11:16:54;8.17;;;4.20;;
13660;SDS011;6903;49.480;11.102;2023-02-01T11:19:22;10.30;;;4.20;;
13660;SDS011;6903;49.480;11.102;2023-02-01T11:21:50;9.27;;;4.73;;
13660;SDS011;6903;49.480;11.102;2023-02-01T11:26:45;8.80;;;4.10;;
13660;SDS011;6903;49.480;11.102;2023-02-01T11:29:12;11.93;;;4.00;;
13660;SDS011;6903;49.480;11.102;2023-02-01T11:31:39;10.10;;;4.43;;
13660;SDS011;6903;49.480;11.102;2023-02-01T11:34:10;9.83;;;4.03;;
13660;SDS011;6903;49.480;11.102;2023-02-01T11:36:40;8.67;;;3.60;;
13660;SDS011;6903;49.480;11.102;2023-02-01T11:41:44;7.17;;;3.53;;
13660;SDS011;6903;49.480;11.102;2023-02-01T11:44:21;8.77;;;3.60;;
13660;SDS011;6903;49.480;11.102;2023-02-01T11:46:48;10.53;;;3.60;;
13660;SDS011;6903;49.480;11.102;2023-02-01T11:49:21;7.43;;;3.13;;
13660;SDS011;6903;49.480;11.102;2023-02-01T11:52:10;9.57;;;3.27;;
13660;SDS011;6903;49.480;11.102;2023-02-01T12:03:28;6.47;;;3.00;;
13660;SDS011;6903;49.480;11.102;2023-02-01T12:05:59;6.87;;;3.73;;
13660;SDS011;6903;49.480;11.102;2023-02-01T12:11:26;8.23;;;3.50;;
13660;SDS011;6903;49.480;11.102;2023-02-01T12:17:09;7.63;;;3.90;;
13660;SDS011;6903;49.480;11.102;2023-02-01T12:19:43;11.57;;;4.53;;
13660;SDS011;6903;49.480;11.102;2023-02-01T12:25:18;9.60;;;3.90;;
13660;SDS011;6903;49.480;11.102;2023-02-01T12:28:25;10.07;;;3.70;;
13660;SDS011;6903;49.480;11.102;2023-02-01T12:30:55;7.17;;;3.00;;
13660;SDS011;6903;49.480;11.102;2023-02-01T12:33:54;6.77;;;2.83;;
13660;SDS011;6903;49.480;11.102;2023-02-01T12:39:32;8.57;;;3.50;;
13660;SDS011;6903;49.480;11.102;2023-02-01T12:42:24;10.03;;;3.30;;
13660;SDS011;6903;49.480;11.102;2023-02-01T12:45:01;8.30;;;2.80;;
13660;SDS011;6903;49.480;11.102;2023-02-01T12:47:47;8.60;;;3.47;;
13660;SDS011;6903;49.480;11.102;2023-02-01T12:50:41;8.87;;;3.80;;
13660;SDS011;6903;49.480;11.102;2023-02-01T12:53:14;6.37;;;3.00;;
13660;SDS011;6903;49.480;11.102;2023-02-01T12:56:05;7.80;;;3.23;;
13660;SDS011;6903;49.480;11.102;2023-02-01T12:58:40;6.93;;;3.33;;
13660;SDS011;6903;49.480;11.102;2023-02-01T13:01:21;8.70;;;3.57;;
13660;SDS011;6903;49.480;11.102;2023-02-01T13:06:32;5.50;;;3.00;;
13660;SDS011;6903;49.480;11.102;2023-02-01T13:11:45;6.60;;;3.00;;
13660;SDS011;6903;49.480;11.102;2023-02-01T13:14:23;8.67;;;3.10;;
13660;SDS011;6903;49.480;11.102;2023-02-01T13:16:56;7.03;;;3.00;;
13660;SDS011;6903;49.480;11.102;2023-02-01T13:22:13;7.20;;;3.70;;
13660;SDS011;6903;49.480;11.102;2023-02-01T13:27:21;6.27;;;2.90;;
13660;SDS011;6903;49.480;11.102;2023-02-01T13:29:57;10.50;;;3.47;;
13660;SDS011;6903;49.480;11.102;2023-02-01T13:38:10;10.30;;;4.17;;
13660;SDS011;6903;49.480;11.102;2023-02-01T13:41:27;10.27;;;3.70;;
13660;SDS011;6903;49.480;11.102;2023-02-01T13:43:52;9.43;;;3.80;;
13660;SDS011;6903;49.480;11.102;2023-02-01T13:46:22;8.53;;;3.43;;
13660;SDS011;6903;49.480;11.102;2023-02-01T13:51:15;9.30;;;3.47;;
13660;SDS011;6903;49.480;11.102;2023-02-01T13:53:53;8.57;;;2.80;;
13660;SDS011;6903;49.480;11.102;2023-02-01T13:56:19;8.63;;;2.87;;
13660;SDS011;6903;49.480;11.102;2023-02-01T13:58:47;7.70;;;3.10;;
13660;SDS011;6903;49.480;11.102;2023-02-01T14:03:51;6.43;;;2.93;;
13660;SDS011;6903;49.480;11.102;2023-02-01T14:14:37;7.20;;;3.10;;
13660;SDS011;6903;49.480;11.102;2023-02-01T14:21:58;5.30;;;2.67;;
13660;SDS011;6903;49.480;11.102;2023-02-01T14:24:32;11.03;;;2.80;;
13660;SDS011;6903;49.480;11.102;2023-02-01T14:27:00;8.07;;;2.70;;
13660;SDS011;6903;49.480;11.102;2023-02-01T14:29:34;6.63;;;2.67;;
13660;SDS011;6903;49.480;11.102;2023-02-01T14:37:22;10.20;;;2.87;;
13660;SDS011;6903;49.480;11.102;2023-02-01T14:42:45;8.37;;;2.83;;
13660;SDS011;6903;49.480;11.102;2023-02-01T14:55:38;8.93;;;3.20;;
13660;SDS011;6903;49.480;11.102;2023-02-01T14:58:18;7.17;;;2.70;;
13660;SDS011;6903;49.480;11.102;2023-02-01T15:00:57;8.60;;;2.70;;
13660;SDS011;6903;49.480;11.102;2023-02-01T15:06:22;5.83;;;2.60;;
13660;SDS011;6903;49.480;11.102;2023-02-01T15:08:47;5.70;;;2.27;;
13660;SDS011;6903;49.480;11.102;2023-02-01T15:11:15;8.80;;;2.90;;
13660;SDS011;6903;49.480;11.102;2023-02-01T15:13:47;7.50;;;2.80;;
13660;SDS011;6903;49.480;11.102;2023-02-01T15:16:15;9.93;;;2.80;;
13660;SDS011;6903;49.480;11.102;2023-02-01T15:18:41;7.60;;;3.90;;
13660;SDS011;6903;49.480;11.102;2023-02-01T15:21:12;7.73;;;2.93;;
13660;SDS011;6903;49.480;11.102;2023-02-01T15:23:43;7.13;;;2.50;;
13660;SDS011;6903;49.480;11.102;2023-02-01T15:26:10;6.30;;;3.17;;
13660;SDS011;6903;49.480;11.102;2023-02-01T15:28:36;12.97;;;3.60;;
13660;SDS011;6903;49.480;11.102;2023-02-01T15:31:02;8.27;;;3.53;;
13660;SDS011;6903;49.480;11.102;2023-02-01T15:33:30;7.53;;;3.40;;
13660;SDS011;6903;49.480;11.102;2023-02-01T15:41:09;7.77;;;3.40;;
13660;SDS011;6903;49.480;11.102;2023-02-01T15:46:22;9.90;;;3.30;;
13660;SDS011;6903;49.480;11.102;2023-02-01T15:49:00;9.97;;;3.03;;
13660;SDS011;6903;49.480;11.102;2023-02-01T15:51:27;8.13;;;3.00;;
13660;SDS011;6903;49.480;11.102;2023-02-01T15:53:59;11.53;;;2.80;;
13660;SDS011;6903;49.480;11.102;2023-02-01T15:56:28;7.27;;;2.83;;
13660;SDS011;6903;49.480;11.102;2023-02-01T15:58:59;6.80;;;2.70;;
13660;SDS011;6903;49.480;11.102;2023-02-01T16:01:26;5.80;;;2.30;;
13660;SDS011;6903;49.480;11.102;2023-02-01T16:06:55;6.93;;;2.83;;
13660;SDS011;6903;49.480;11.102;2023-02-01T16:09:25;6.87;;;2.67;;
13660;SDS011;6903;49.480;11.102;2023-02-01T16:12:01;7.33;;;2.50;;
13660;SDS011;6903;49.480;11.102;2023-02-01T16:14:29;6.97;;;2.33;;
13660;SDS011;6903;49.480;11.102;2023-02-01T16:16:56;5.83;;;2.50;;
13660;SDS011;6903;49.480;11.102;2023-02-01T16:19:22;8.83;;;2.70;;
13660;SDS011;6903;49.480;11.102;2023-02-01T16:21:52;6.87;;;1.97;;
13660;SDS011;6903;49.480;11.102;2023-02-01T16:24:18;7.17;;;2.30;;
13660;SDS011;6903;49.480;11.102;2023-02-01T16:26:43;9.33;;;2.83;;
13660;SDS011;6903;49.480;11.102;2023-02-01T16:29:09;8.20;;;2.60;;
13660;SDS011;6903;49.480;11.102;2023-02-01T16:31:37;7.33;;;2.77;;
13660;SDS011;6903;49.480;11.102;2023-02-01T16:34:04;5.23;;;2.20;;
13660;SDS011;6903;49.480;11.102;2023-02-01T16:36:30;7.73;;;2.70;;
13660;SDS011;6903;49.480;11.102;2023-02-01T16:38:56;7.00;;;2.43;;
13660;SDS011;6903;49.480;11.102;2023-02-01T16:41:22;6.27;;;2.20;;
13660;SDS011;6903;49.480;11.102;2023-02-01T16:43:50;5.70;;;2.40;;
13660;SDS011;6903;49.480;11.102;2023-02-01T16:46:17;7.17;;;2.60;;
13660;SDS011;6903;49.480;11.102;2023-02-01T16:48:50;10.53;;;2.47;;
13660;SDS011;6903;49.480;11.102;2023-02-01T16:51:17;9.57;;;2.70;;
13660;SDS011;6903;49.480;11.102;2023-02-01T16:53:43;8.60;;;2.63;;
13660;SDS011;6903;49.480;11.102;2023-02-01T16:56:13;6.40;;;2.27;;
13660;SDS011;6903;49.480;11.102;2023-02-01T16:58:44;5.70;;;2.53;;
13660;SDS011;6903;49.480;11.102;2023-02-01T17:01:11;6.03;;;2.50;;
13660;SDS011;6903;49.480;11.102;2023-02-01T17:03:38;6.00;;;2.30;;
13660;SDS011;6903;49.480;11.102;2023-02-01T17:06:04;9.10;;;2.80;;
13660;SDS011;6903;49.480;11.102;2023-02-01T17:08:36;5.57;;;2.00;;
13660;SDS011;6903;49.480;11.102;2023-02-01T17:11:05;8.63;;;2.53;;
13660;SDS011;6903;49.480;11.102;2023-02-01T17:13:31;5.03;;;2.83;;
13660;SDS011;6903;49.480;11.102;2023-02-01T17:16:01;7.37;;;2.30;;
13660;SDS011;6903;49.480;11.102;2023-02-01T17:18:30;9.00;;;3.43;;
13660;SDS011;6903;49.480;11.102;2023-02-01T17:20:58;8.60;;;2.57;;
13660;SDS011;6903;49.480;11.102;2023-02-01T17:23:24;4.13;;;2.20;;
13660;SDS011;6903;49.480;11.102;2023-02-01T17:25:51;8.60;;;2.07;;